Time;durP1;ratioP1;P1;durP2;ratioP2;P2;SDS_P1;SDS_P2;PMS_P1;PMS_P2;Temp;Humidity;BMP_temperature;BMP_pressure;BME280_temperature;BME280_humidity;BME280_pressure;Samples;Min_cycle;Max_cycle;Signal;HPM_P1;HPM_P2
2023/07/07 00:00:12;;;;;;;8.60;6.80;;;;;;;20.28;100.00;64098.47;5125580;28;20198;-78
2023/07/07 00:02:41;;;;;;;6.55;5.43;;;;;;;20.27;100.00;64099.50;5124968;28;20198;-80
2023/07/07 00:05:09;;;;;;;5.90;5.40;;;;;;;20.24;100.00;64096.88;5128155;28;20187;-80
2023/07/07 00:07:35;;;;;;;7.22;5.57;;;;;;;20.19;100.00;64086.50;5111886;28;20275;-81
2023/07/07 00:10:03;;;;;;;6.40;5.80;;;;;;;20.17;100.00;64087.00;5127381;28;20266;-79
2023/07/07 00:12:30;;;;;;;6.68;5.97;;;;;;;20.10;100.00;64079.16;5125391;28;20219;-78
2023/07/07 00:14:58;;;;;;;8.40;6.65;;;;;;;20.12;100.00;64081.25;5124269;28;20212;-79
2023/07/07 00:17:26;;;;;;;7.53;6.82;;;;;;;20.06;100.00;64072.94;5126554;28;20226;-80
2023/07/07 00:19:54;;;;;;;7.93;5.70;;;;;;;20.10;100.00;64077.09;5128145;28;20199;-80
2023/07/07 00:22:22;;;;;;;7.03;6.43;;;;;;;20.10;100.00;64071.94;5122246;28;20223;-80
2023/07/07 00:24:48;;;;;;;6.82;6.13;;;;;;;20.10;100.00;64081.75;5113742;28;20202;-80
2023/07/07 00:27:16;;;;;;;6.60;6.00;;;;;;;20.06;100.00;64080.69;5109148;28;20215;-79
2023/07/07 00:29:43;;;;;;;7.05;6.35;;;;;;;20.07;100.00;64073.44;5120787;28;20210;-80
2023/07/07 00:32:10;;;;;;;6.47;5.88;;;;;;;20.02;100.00;64073.41;5123036;28;20410;-78
2023/07/07 00:34:37;;;;;;;5.82;5.43;;;;;;;20.01;100.00;64074.94;5129776;28;20277;-80
2023/07/07 00:37:06;;;;;;;7.35;6.68;;;;;;;19.99;100.00;64063.03;5115348;28;20237;-81
2023/07/07 00:39:33;;;;;;;6.18;5.68;;;;;;;20.01;100.00;64072.34;5125069;28;20228;-79
2023/07/07 00:41:59;;;;;;;7.30;6.75;;;;;;;20.02;100.00;64068.25;5116797;28;20223;-79
2023/07/07 00:44:31;;;;;;;6.93;6.32;;;;;;;20.03;100.00;64072.38;5126893;28;20195;-80
2023/07/07 00:46:58;;;;;;;6.75;6.13;;;;;;;20.01;100.00;64072.34;5132559;28;20226;-81
2023/07/07 00:49:27;;;;;;;6.32;5.78;;;;;;;19.97;100.00;64068.16;5124747;28;20499;-79
2023/07/07 00:51:59;;;;;;;6.68;5.95;;;;;;;20.00;100.00;64073.91;5127479;28;20230;-79
2023/07/07 00:54:31;;;;;;;6.88;5.80;;;;;;;19.93;100.00;64064.53;5128871;28;20265;-80
2023/07/07 00:56:58;;;;;;;6.38;5.88;;;;;;;19.87;100.00;64050.50;5129878;28;20235;-79
2023/07/07 00:59:30;;;;;;;6.95;5.93;;;;;;;19.82;100.00;64047.88;5127817;28;20214;-80
2023/07/07 01:02:03;;;;;;;6.60;6.00;;;;;;;19.86;100.00;64052.06;5132857;28;20233;-80
2023/07/07 01:04:32;;;;;;;6.05;5.65;;;;;;;19.85;100.00;64053.06;5130325;28;20211;-79
2023/07/07 01:07:06;;;;;;;7.57;6.03;;;;;;;19.79;100.00;64047.34;5131832;28;20261;-80
2023/07/07 01:09:35;;;;;;;6.38;5.88;;;;;;;19.78;100.00;64048.34;5124099;28;20198;-79
2023/07/07 01:12:02;;;;;;;7.38;6.65;;;;;;;19.69;100.00;64038.97;5132300;28;20224;-80
2023/07/07 01:14:31;;;;;;;7.07;6.30;;;;;;;19.57;100.00;64026.47;5127445;28;20226;-80
2023/07/07 01:17:12;;;;;;;7.55;5.80;;;;;;;19.62;100.00;64023.91;5134990;28;20283;-81
2023/07/07 01:20:04;;;;;;;7.05;6.40;;;;;;;19.63;100.00;64027.53;5121316;28;20396;-79
2023/07/07 01:23:03;;;;;;;7.50;6.82;;;;;;;19.61;100.00;64025.44;5116614;28;20520;-79
2023/07/07 01:25:46;;;;;;;7.03;6.43;;;;;;;19.59;100.00;64029.06;5108228;28;20194;-81
2023/07/07 01:28:38;;;;;;;7.10;6.50;;;;;;;19.61;100.00;64028.03;5132427;28;20199;-79
2023/07/07 01:31:12;;;;;;;8.32;7.63;;;;;;;19.58;100.00;64032.66;5128912;28;20223;-79
2023/07/07 01:33:42;;;;;;;8.45;6.82;;;;;;;19.51;100.00;64015.56;5121518;28;20526;-78
2023/07/07 01:36:09;;;;;;;8.00;7.20;;;;;;;19.51;100.00;64012.97;5131930;28;20238;-79
2023/07/07 01:38:40;;;;;;;8.27;7.47;;;;;;;19.51;100.00;64021.25;5130993;28;20199;-81
2023/07/07 01:41:19;;;;;;;8.15;7.47;;;;;;;19.44;100.00;64013.41;5125966;28;20225;-79
2023/07/07 01:43:56;;;;;;;8.50;7.80;;;;;;;19.47;100.00;64017.06;5119561;28;20229;-79
2023/07/07 01:46:30;;;;;;;9.60;8.63;;;;;;;19.43;100.00;64007.22;5129970;28;20263;-79
2023/07/07 01:49:03;;;;;;;11.38;9.07;;;;;;;19.33;100.00;63999.34;5129304;28;20624;-79
2023/07/07 01:51:36;;;;;;;10.05;8.40;;;;;;;19.37;100.00;64004.06;5130941;28;20280;-80
2023/07/07 01:54:06;;;;;;;8.43;7.60;;;;;;;19.32;100.00;63995.75;5124815;28;20199;-78
2023/07/07 01:56:34;;;;;;;9.70;8.80;;;;;;;19.34;100.00;63998.34;5128268;28;20223;-79
2023/07/07 01:59:03;;;;;;;11.65;10.45;;;;;;;19.33;100.00;63999.88;5128926;28;20206;-80
2023/07/07 02:01:31;;;;;;;12.85;11.57;;;;;;;19.40;100.00;64007.19;5118050;28;20488;-80
2023/07/07 02:03:58;;;;;;;13.57;12.20;;;;;;;19.46;100.00;64015.50;5131109;28;20210;-79
2023/07/07 02:06:26;;;;;;;14.90;12.75;;;;;;;19.54;100.00;64019.19;5125176;28;20264;-79
2023/07/07 02:08:53;;;;;;;16.23;13.25;;;;;;;19.60;100.00;64032.16;5123488;28;20199;-80
2023/07/07 02:11:19;;;;;;;15.48;13.88;;;;;;;19.68;100.00;64035.34;5138375;27;20217;-80
2023/07/07 02:13:46;;;;;;;19.52;13.90;;;;;;;19.74;100.00;64041.59;5129254;28;20195;-78
2023/07/07 02:16:14;;;;;;;17.75;15.85;;;;;;;19.77;100.00;64045.25;5129635;28;20245;-81
2023/07/07 02:18:48;;;;;;;17.90;15.98;;;;;;;19.88;100.00;64056.72;5126722;28;20214;-79
2023/07/07 02:21:15;;;;;;;20.85;16.15;;;;;;;19.90;100.00;64055.69;5124089;28;20227;-80
2023/07/07 02:23:42;;;;;;;18.52;16.48;;;;;;;20.00;100.00;64071.31;5125486;28;20201;-79
2023/07/07 02:26:10;;;;;;;19.77;15.82;;;;;;;20.04;100.00;64076.00;5121444;28;20227;-79
2023/07/07 02:28:37;;;;;;;19.13;16.33;;;;;;;20.14;100.00;64086.44;5128534;28;20202;-80
2023/07/07 02:31:04;;;;;;;20.77;16.55;;;;;;;20.21;100.00;64093.75;5126591;28;20222;-78
2023/07/07 02:33:32;;;;;;;19.13;14.65;;;;;;;20.21;100.00;64093.22;5128738;28;20199;-82
2023/07/07 02:36:03;;;;;;;15.38;13.90;;;;;;;20.23;100.00;64095.31;5124609;28;20227;-77
2023/07/07 02:38:31;;;;;;;16.70;14.90;;;;;;;20.24;100.00;64096.88;5124632;28;20199;-80
2023/07/07 02:40:59;;;;;;;20.23;16.58;;;;;;;20.27;100.00;64099.50;5131595;28;20214;-80
2023/07/07 02:43:27;;;;;;;18.52;15.48;;;;;;;20.29;100.00;64101.59;5132776;28;20202;-81
2023/07/07 02:45:54;;;;;;;16.70;14.90;;;;;;;20.26;100.00;64101.06;5120351;28;20215;-81
2023/07/07 02:48:22;;;;;;;17.88;15.20;;;;;;;20.24;100.00;64094.31;5134251;27;20199;-81
2023/07/07 02:50:56;;;;;;;19.67;15.32;;;;;;;20.19;100.00;64086.00;5130118;28;20604;-80
2023/07/07 02:53:26;;;;;;;16.38;14.60;;;;;;;20.21;100.00;64093.22;5112111;28;20249;-79
2023/07/07 02:55:53;;;;;;;19.80;16.40;;;;;;;20.28;100.00;64097.97;5132539;28;20254;-79
2023/07/07 02:58:20;;;;;;;16.80;15.02;;;;;;;20.29;100.00;64099.00;5121233;28;20199;-78
2023/07/07 03:00:51;;;;;;;20.55;15.05;;;;;;;20.32;100.00;64107.31;5129948;28;20226;-79
2023/07/07 03:03:19;;;;;;;16.77;15.00;;;;;;;20.29;100.00;64101.59;5119815;28;20324;-78
2023/07/07 03:05:47;;;;;;;18.17;15.18;;;;;;;20.27;100.00;64097.44;5121567;28;20260;-80
2023/07/07 03:08:13;;;;;;;20.60;15.60;;;;;;;20.28;100.00;64097.97;5129163;28;20419;-81
2023/07/07 03:10:42;;;;;;;21.50;15.57;;;;;;;20.33;100.00;64103.16;5118888;28;20221;-79
2023/07/07 03:13:11;;;;;;;20.35;16.50;;;;;;;20.31;100.00;64101.59;5126912;28;20262;-80
2023/07/07 03:15:40;;;;;;;16.17;14.55;;;;;;;20.32;100.00;64102.66;5127834;28;20215;-77
2023/07/07 03:18:08;;;;;;;18.63;15.05;;;;;;;20.36;100.00;64101.16;5130532;28;20230;-80
2023/07/07 03:20:35;;;;;;;19.42;15.38;;;;;;;20.34;100.00;64104.75;5127164;28;20222;-80
2023/07/07 03:23:04;;;;;;;16.70;14.77;;;;;;;20.38;100.00;64105.81;5124132;28;20239;-79
2023/07/07 03:25:31;;;;;;;18.08;16.08;;;;;;;20.41;100.00;64114.13;5127556;28;20205;-79
2023/07/07 03:28:00;;;;;;;17.65;15.07;;;;;;;20.40;100.00;64113.59;5130616;28;20206;-80
2023/07/07 03:30:28;;;;;;;19.67;14.20;;;;;;;20.51;100.00;64116.78;5122887;28;20304;-80
2023/07/07 03:32:55;;;;;;;17.33;15.45;;;;;;;20.51;100.00;64119.91;5126167;28;20210;-78
2023/07/07 03:35:22;;;;;;;22.63;16.20;;;;;;;20.55;100.00;64128.75;5127903;28;20202;-80
2023/07/07 03:37:49;;;;;;;19.75;15.68;;;;;;;20.61;100.00;64135.00;5128242;28;20261;-79
2023/07/07 03:40:16;;;;;;;21.95;15.57;;;;;;;20.55;100.00;64126.66;5117505;28;20254;-79
2023/07/07 03:42:43;;;;;;;20.55;15.70;;;;;;;20.56;100.00;64127.19;5116169;28;20270;-80
2023/07/07 03:45:12;;;;;;;21.20;16.05;;;;;;;20.56;100.00;64130.31;5108233;28;20223;-80
2023/07/07 03:47:39;;;;;;;18.77;16.90;;;;;;;20.60;100.00;64131.38;5116750;28;20213;-79
2023/07/07 03:50:07;;;;;;;21.27;16.60;;;;;;;20.56;100.00;64124.59;5123500;28;20201;-78
2023/07/07 03:52:35;;;;;;;21.08;16.15;;;;;;;20.73;100.00;64147.53;5128595;28;20230;-79
2023/07/07 03:55:02;;;;;;;19.73;17.58;;;;;;;20.75;100.00;64147.03;5128251;28;20469;-80
2023/07/07 03:57:29;;;;;;;26.73;17.67;;;;;;;20.76;100.00;64148.06;5117905;28;20234;-79
2023/07/07 03:59:56;;;;;;;22.30;17.42;;;;;;;20.75;100.00;64149.59;5127216;28;20208;-79
2023/07/07 04:02:24;;;;;;;21.00;17.13;;;;;;;20.85;100.00;64154.34;5120498;28;20314;-80
2023/07/07 04:04:52;;;;;;;20.75;17.08;;;;;;;20.97;100.00;64172.06;5126488;28;20194;-81
2023/07/07 04:07:19;;;;;;;21.23;17.92;;;;;;;21.01;100.00;64168.47;5120731;28;20227;-79
2023/07/07 04:09:46;;;;;;;19.58;16.90;;;;;;;20.90;100.00;64157.50;5116428;28;20213;-79
2023/07/07 04:12:13;;;;;;;23.88;18.20;;;;;;;20.88;100.00;64160.59;5108656;28;20226;-78
2023/07/07 04:14:40;;;;;;;26.95;17.73;;;;;;;20.99;100.00;64174.69;5116278;28;20194;-78
2023/07/07 04:17:07;;;;;;;24.73;19.08;;;;;;;21.11;100.00;64186.69;5124961;28;20267;-78
2023/07/07 04:19:36;;;;;;;22.25;17.17;;;;;;;21.17;100.00;64190.91;5129368;28;20505;-78
2023/07/07 04:22:03;;;;;;;21.30;18.42;;;;;;;21.06;100.00;64186.66;5126372;28;20219;-80
2023/07/07 04:24:30;;;;;;;18.98;16.13;;;;;;;21.14;100.00;64189.84;5129278;28;20241;-77
2023/07/07 04:26:57;;;;;;;22.52;17.45;;;;;;;21.18;100.00;64194.53;5124589;28;20875;-79
2023/07/07 04:29:24;;;;;;;21.83;17.38;;;;;;;21.20;100.00;64199.22;5126792;28;20195;-80
2023/07/07 04:31:51;;;;;;;19.02;17.00;;;;;;;21.22;100.00;64198.72;5129054;28;20222;-81
2023/07/07 04:34:18;;;;;;;23.90;17.60;;;;;;;21.14;100.00;64187.75;5121539;28;20199;-79
2023/07/07 04:36:47;;;;;;;18.77;16.08;;;;;;;21.05;100.00;64180.97;5126475;28;20238;-81
2023/07/07 04:39:14;;;;;;;23.60;17.60;;;;;;;21.10;100.00;64185.66;5131112;28;20518;-79
2023/07/07 04:41:41;;;;;;;20.27;17.42;;;;;;;21.25;100.00;64201.84;5125028;28;20257;-81
2023/07/07 04:44:09;;;;;;;18.05;15.98;;;;;;;21.56;100.00;64233.69;5131837;28;20265;-77
2023/07/07 04:46:38;;;;;;;21.50;16.60;;;;;;;21.85;100.00;64256.25;5132460;28;20237;-78
2023/07/07 04:49:07;;;;;;;20.60;17.65;;;;;;;21.99;100.00;64280.72;5134794;28;20464;-79
2023/07/07 04:51:35;;;;;;;22.58;18.13;;;;;;;22.18;100.00;64297.97;5128371;28;20219;-81
2023/07/07 04:54:04;;;;;;;17.80;15.95;;;;;;;22.11;100.00;64288.06;5128253;28;20190;-79
2023/07/07 04:56:33;;;;;;;19.10;17.05;;;;;;;22.02;100.00;64281.28;5131855;27;20535;-80
2023/07/07 04:59:00;;;;;;;19.88;16.63;;;;;;;22.04;100.00;64280.78;5116298;28;20210;-81
2023/07/07 05:01:29;;;;;;;18.90;16.45;;;;;;;21.95;100.00;64273.94;5126812;28;20546;-79
2023/07/07 05:03:59;;;;;;;20.60;16.90;;;;;;;21.89;100.00;64265.09;5126227;28;20194;-80
2023/07/07 05:06:28;;;;;;;20.20;17.77;;;;;;;21.96;100.00;64272.41;5129891;28;20298;-81
2023/07/07 05:08:56;;;;;;;18.95;16.95;;;;;;;22.02;100.00;64278.69;5127695;28;20207;-78
2023/07/07 05:11:26;;;;;;;18.55;16.35;;;;;;;21.94;100.00;64270.31;5130045;28;20242;-79
2023/07/07 05:13:54;;;;;;;19.88;16.65;;;;;;;21.93;100.00;64271.84;5120561;28;20507;-79
2023/07/07 05:16:22;;;;;;;19.45;16.33;;;;;;;22.21;100.00;64301.63;5130231;28;20227;-79
2023/07/07 05:18:49;;;;;;;19.58;17.50;;;;;;;22.00;100.00;64277.13;5127206;28;20195;-81
2023/07/07 05:21:19;;;;;;;21.10;17.85;;;;;;;21.99;100.00;64278.66;5126016;28;20420;-80
2023/07/07 05:23:46;;;;;;;21.35;17.98;;;;;;;21.89;100.00;64268.19;5129144;28;20207;-78
2023/07/07 05:26:13;;;;;;;20.20;17.27;;;;;;;21.84;100.00;64262.44;5131843;28;20225;-81
2023/07/07 05:28:42;;;;;;;21.08;17.88;;;;;;;22.12;100.00;64289.13;5130577;28;20233;-80
2023/07/07 05:31:10;;;;;;;18.85;16.83;;;;;;;22.15;100.00;64295.38;5127542;28;20211;-79
2023/07/07 05:33:40;;;;;;;19.02;16.83;;;;;;;21.89;100.00;64265.59;5125215;28;20205;-80
2023/07/07 05:36:09;;;;;;;19.15;16.35;;;;;;;22.18;100.00;64295.38;5127594;28;20219;-80
2023/07/07 05:38:39;;;;;;;19.35;16.90;;;;;;;22.36;100.00;64317.34;5130591;28;20248;-77
2023/07/07 05:41:07;;;;;;;19.20;17.10;;;;;;;22.28;100.00;64306.38;5118761;28;20218;-80
2023/07/07 05:43:35;;;;;;;23.95;16.42;;;;;;;22.12;100.00;64289.13;5124960;28;20275;-83
2023/07/07 05:46:07;;;;;;;21.83;17.73;;;;;;;21.91;100.00;64267.69;5125423;28;20539;-79
2023/07/07 05:48:34;;;;;;;20.95;17.55;;;;;;;22.04;100.00;64280.78;5122843;28;20199;-79
2023/07/07 05:51:04;;;;;;;19.60;16.08;;;;;;;22.32;100.00;64312.63;5120425;28;20242;-79
2023/07/07 05:53:32;;;;;;;19.52;16.40;;;;;;;22.60;100.00;64341.91;5124023;28;20199;-81
2023/07/07 05:56:06;;;;;;;19.13;15.23;;;;;;;22.55;100.00;64339.28;5118711;28;20222;-77
2023/07/07 05:58:34;;;;;;;19.48;14.95;;;;;;;22.29;100.00;64309.50;5131501;28;20213;-78
2023/07/07 06:01:04;;;;;;;19.58;16.70;;;;;;;21.81;100.00;64254.66;5118506;28;20215;-81
2023/07/07 06:03:32;;;;;;;23.23;17.35;;;;;;;21.88;100.00;64274.94;5117111;28;20205;-78
2023/07/07 06:06:00;;;;;;;19.75;16.15;;;;;;;21.99;100.00;64278.13;5127003;27;20218;-79
2023/07/07 06:08:27;;;;;;;21.90;17.92;;;;;;;22.20;100.00;64297.47;5134058;28;20496;-81
2023/07/07 06:10:54;;;;;;;18.63;16.67;;;;;;;22.16;100.00;64293.31;5128241;28;20243;-81
2023/07/07 06:13:23;;;;;;;21.90;16.02;;;;;;;22.35;100.00;64313.69;5124102;28;20202;-79
2023/07/07 06:15:51;;;;;;;19.20;16.42;;;;;;;22.43;100.00;64324.66;5132588;28;20214;-80
2023/07/07 06:18:20;;;;;;;18.60;16.15;;;;;;;22.33;100.00;64311.59;5128352;28;20226;-82
2023/07/07 06:20:52;;;;;;;18.73;16.73;;;;;;;22.76;100.00;64359.16;5124488;27;20392;-78
2023/07/07 06:23:20;;;;;;;17.10;15.43;;;;;;;22.47;100.00;64326.22;5132896;28;20221;-80
2023/07/07 06:25:49;;;;;;;18.42;16.55;;;;;;;22.39;100.00;64320.47;5123580;28;20223;-81
2023/07/07 06:28:16;;;;;;;19.48;15.15;;;;;;;22.62;100.00;64344.00;5116237;28;20481;-80
2023/07/07 06:30:44;;;;;;;16.83;13.10;;;;;;;22.52;100.00;64334.03;5128079;28;20388;-79
2023/07/07 06:33:10;;;;;;;17.20;15.27;;;;;;;22.57;100.00;64336.69;5130104;28;20220;-80
2023/07/07 06:35:39;;;;;;;17.25;15.45;;;;;;;22.73;100.00;64352.91;5131952;28;20223;-80
2023/07/07 06:38:06;;;;;;;18.45;15.55;;;;;;;22.43;100.00;64321.53;5124632;28;20278;-80
2023/07/07 06:40:34;;;;;;;18.85;15.73;;;;;;;22.33;100.00;64314.19;5132869;28;20214;-81
2023/07/07 06:43:01;;;;;;;21.15;16.02;;;;;;;22.61;100.00;64340.34;5129887;28;20195;-80
2023/07/07 06:45:29;;;;;;;17.77;15.00;;;;;;;22.80;100.00;64358.16;5113207;28;20195;-80
2023/07/07 06:47:56;;;;;;;18.27;15.00;;;;;;;22.93;100.00;64373.81;5120860;28;20261;-82
2023/07/07 06:50:30;;;;;;;21.90;15.23;;;;;;;23.26;100.00;64408.34;5129990;28;20205;-79
2023/07/07 06:52:59;;;;;;;15.13;13.52;;;;;;;22.77;100.00;64357.63;5123704;28;20215;-79
2023/07/07 06:55:26;;;;;;;16.65;15.02;;;;;;;22.83;100.00;64363.38;5123622;28;20253;-81
2023/07/07 06:57:53;;;;;;;18.85;15.18;;;;;;;22.95;100.00;64370.19;5125029;28;20222;-81
2023/07/07 07:00:21;;;;;;;18.30;15.82;;;;;;;22.65;100.00;64344.53;5129656;28;20213;-79
2023/07/07 07:02:49;;;;;;;18.77;16.33;;;;;;;23.00;100.00;64381.16;5123369;28;20249;-80
2023/07/07 07:05:16;;;;;;;18.48;15.50;;;;;;;23.34;99.07;64413.59;5130598;28;20202;-82
2023/07/07 07:07:43;;;;;;;16.35;14.07;;;;;;;23.50;99.24;64432.94;5118413;28;20191;-80
2023/07/07 07:10:12;;;;;;;18.83;14.98;;;;;;;23.61;98.79;64447.03;5132609;28;20513;-80
2023/07/07 07:12:40;;;;;;;16.00;14.27;;;;;;;23.83;95.30;64470.09;5131607;27;20201;-78
2023/07/07 07:15:09;;;;;;;16.65;13.15;;;;;;;23.28;96.63;64412.53;5126157;27;20214;-78
2023/07/07 07:17:36;;;;;;;19.92;13.82;;;;;;;23.32;96.88;64416.69;5127281;28;20234;-79
2023/07/07 07:20:04;;;;;;;21.90;15.23;;;;;;;23.30;97.42;64412.00;5123007;28;20195;-78
2023/07/07 07:22:31;;;;;;;13.10;11.30;;;;;;;23.53;94.25;64436.59;5119065;28;20227;-80
2023/07/07 07:24:58;;;;;;;16.33;14.65;;;;;;;23.21;98.63;64405.69;5119564;28;20191;-80
2023/07/07 07:27:27;;;;;;;14.43;12.90;;;;;;;23.37;98.40;64416.72;5123078;28;20250;-80
2023/07/07 07:29:54;;;;;;;18.27;13.63;;;;;;;23.54;95.46;64437.13;5117048;28;20194;-79
2023/07/07 07:32:21;;;;;;;16.27;13.18;;;;;;;23.83;94.44;64464.88;5118988;28;20260;-80
2023/07/07 07:34:48;;;;;;;15.27;12.63;;;;;;;23.61;91.93;64447.03;5118757;28;20199;-79
2023/07/07 07:37:15;;;;;;;15.27;13.50;;;;;;;23.50;93.58;64438.66;5118450;28;20242;-78
2023/07/07 07:39:42;;;;;;;16.55;12.50;;;;;;;23.52;92.98;64435.03;5118584;28;20195;-79
2023/07/07 07:42:10;;;;;;;14.10;12.38;;;;;;;23.37;96.27;64421.94;5119086;28;20252;-81
2023/07/07 07:44:38;;;;;;;16.40;12.32;;;;;;;23.66;95.51;64447.09;5124363;28;20210;-78
2023/07/07 07:47:06;;;;;;;15.07;13.48;;;;;;;23.70;94.45;64461.66;5113800;28;20241;-79
2023/07/07 07:49:33;;;;;;;14.30;12.65;;;;;;;23.62;92.24;64448.09;5115817;28;20252;-81
2023/07/07 07:52:01;;;;;;;14.82;12.77;;;;;;;23.47;94.53;64438.13;5111466;28;20214;-80
2023/07/07 07:54:28;;;;;;;14.25;12.75;;;;;;;23.50;93.56;64435.53;5119971;28;20244;-82
2023/07/07 07:56:55;;;;;;;18.85;13.05;;;;;;;23.53;92.73;64431.41;5118388;28;20471;-80
2023/07/07 07:59:22;;;;;;;18.75;13.68;;;;;;;23.30;96.47;64415.13;5116287;28;20230;-77
2023/07/07 08:01:51;;;;;;;17.60;13.60;;;;;;;23.29;95.16;64411.50;5116625;28;20233;-77
2023/07/07 08:04:18;;;;;;;16.15;13.27;;;;;;;22.95;99.70;64378.53;5112269;28;20192;-78
2023/07/07 08:06:46;;;;;;;16.13;13.98;;;;;;;23.05;98.38;64388.97;5116643;28;20210;-77
2023/07/07 08:09:13;;;;;;;15.35;13.27;;;;;;;22.81;100.00;64361.28;5122751;28;20259;-76
2023/07/07 08:11:59;;;;;;;19.98;14.38;;;;;;;22.88;100.00;64371.19;5117495;28;20210;-76
2023/07/07 08:14:31;;;;;;;14.80;13.30;;;;;;;22.98;100.00;64384.25;5119010;28;21501;-76
2023/07/07 08:17:07;;;;;;;15.25;13.25;;;;;;;22.92;100.00;64375.91;5118272;28;20234;-78
2023/07/07 08:19:36;;;;;;;16.15;13.32;;;;;;;23.17;100.00;64398.94;5120200;28;20240;-76
2023/07/07 08:22:05;;;;;;;16.35;14.07;;;;;;;23.33;100.00;64415.66;5116885;28;20252;-77
2023/07/07 08:24:36;;;;;;;19.75;13.98;;;;;;;23.40;100.00;64425.59;5118330;28;20556;-77
2023/07/07 08:27:04;;;;;;;14.38;12.63;;;;;;;23.74;100.00;64458.06;5120216;28;20444;-77
2023/07/07 08:29:30;;;;;;;12.32;11.07;;;;;;;24.16;88.87;64501.50;5117563;28;20444;-75
2023/07/07 08:31:58;;;;;;;12.65;11.00;;;;;;;24.30;89.94;64516.16;5116296;28;20258;-77
2023/07/07 08:34:27;;;;;;;13.13;11.73;;;;;;;24.37;86.20;64526.63;5117439;28;20198;-76
2023/07/07 08:36:59;;;;;;;11.20;10.10;;;;;;;24.13;87.87;64504.09;5114191;28;20218;-77
2023/07/07 08:39:28;;;;;;;16.13;11.70;;;;;;;24.08;88.33;64493.13;5116364;28;20230;-77
2023/07/07 08:41:59;;;;;;;12.68;11.38;;;;;;;24.07;88.08;64494.69;5117303;28;20252;-78
2023/07/07 08:44:28;;;;;;;14.90;12.15;;;;;;;24.19;90.45;64504.66;5121226;28;20205;-76
2023/07/07 08:47:14;;;;;;;15.77;11.27;;;;;;;24.37;88.23;64518.81;5117668;28;20219;-76
2023/07/07 08:49:50;;;;;;;12.77;11.45;;;;;;;24.80;85.52;64571.66;5119324;28;20423;-77
2023/07/07 08:52:30;;;;;;;17.75;11.68;;;;;;;24.97;83.54;64586.34;5118013;28;20248;-77
2023/07/07 08:55:08;;;;;;;12.25;10.98;;;;;;;24.83;84.96;64572.19;5119079;28;20199;-76
2023/07/07 08:57:45;;;;;;;12.40;11.27;;;;;;;24.86;85.99;64577.94;5119519;28;20219;-78
2023/07/07 09:00:22;;;;;;;12.57;11.27;;;;;;;24.77;81.79;64565.91;5112288;28;20494;-78
2023/07/07 09:03:08;;;;;;;11.77;10.75;;;;;;;24.80;81.62;64568.53;5120150;28;20202;-77
2023/07/07 09:05:50;;;;;;;11.90;10.55;;;;;;;24.85;82.34;64576.38;5119840;28;20227;-77
2023/07/07 09:08:24;;;;;;;12.77;10.73;;;;;;;25.11;79.41;64601.00;5116802;28;20211;-76
2023/07/07 09:11:04;;;;;;;12.18;10.85;;;;;;;25.29;77.87;64621.94;5117904;28;20289;-76
2023/07/07 09:13:35;;;;;;;11.82;10.10;;;;;;;25.25;79.68;64613.06;5118594;28;20191;-74
2023/07/07 09:16:11;;;;;;;10.52;9.40;;;;;;;25.17;72.51;64609.91;5121081;28;20286;-77
2023/07/07 09:18:44;;;;;;;10.73;9.65;;;;;;;25.43;73.73;64631.41;5120964;28;20237;-77
2023/07/07 09:21:31;;;;;;;12.02;10.85;;;;;;;25.62;74.73;64649.25;5117398;28;20535;-77
2023/07/07 09:24:05;;;;;;;15.48;11.10;;;;;;;25.20;78.54;64609.91;5121542;28;20245;-76
2023/07/07 09:26:34;;;;;;;11.88;10.60;;;;;;;25.43;75.88;64636.63;5118101;28;20219;-76
2023/07/07 09:29:08;;;;;;;11.20;10.10;;;;;;;25.25;74.89;64620.38;5117599;28;20207;-77
2023/07/07 09:31:42;;;;;;;11.77;10.75;;;;;;;25.11;76.56;64603.59;5120935;28;20224;-75
2023/07/07 09:34:12;;;;;;;16.50;8.98;;;;;;;25.37;68.64;64622.53;5113268;28;20216;-78
2023/07/07 09:36:48;;;;;;;11.32;10.07;;;;;;;25.09;72.40;64596.31;5115964;28;20218;-77
2023/07/07 09:39:31;;;;;;;10.48;9.52;;;;;;;25.39;68.17;64632.97;5115101;28;20949;-77
2023/07/07 09:42:09;;;;;;;11.00;9.90;;;;;;;25.51;70.20;64642.94;5118870;28;20215;-75
2023/07/07 09:44:54;;;;;;;10.30;9.32;;;;;;;26.03;67.68;64697.44;5118544;28;20218;-77
2023/07/07 09:47:30;;;;;;;10.07;9.10;;;;;;;25.93;66.44;64686.41;5119053;28;20553;-77
2023/07/07 09:50:03;;;;;;;10.45;9.55;;;;;;;26.07;65.97;64701.66;5117735;28;20207;-77
2023/07/07 09:52:38;;;;;;;9.02;8.13;;;;;;;26.13;62.34;64710.53;5117758;28;20223;-76
2023/07/07 09:55:18;;;;;;;9.43;8.32;;;;;;;26.43;57.42;64738.84;5116532;28;20204;-75
2023/07/07 09:57:52;;;;;;;10.20;8.88;;;;;;;26.43;58.36;64736.25;5115326;28;20209;-80
2023/07/07 10:00:22;;;;;;;9.02;7.95;;;;;;;26.62;57.42;64756.16;5118433;28;20224;-75
2023/07/07 10:02:49;;;;;;;8.70;7.82;;;;;;;26.98;55.35;64796.03;5123704;28;20194;-76
2023/07/07 10:05:22;;;;;;;10.52;8.60;;;;;;;26.96;57.02;64796.53;5116727;28;20220;-77
2023/07/07 10:07:53;;;;;;;11.05;8.70;;;;;;;27.07;56.24;64810.69;5121925;28;20249;-77
2023/07/07 10:10:20;;;;;;;10.30;7.35;;;;;;;27.01;56.14;64799.69;5118103;28;20196;-78
2023/07/07 10:12:47;;;;;;;10.18;8.68;;;;;;;26.99;57.77;64802.31;5115398;28;20196;-77
2023/07/07 10:15:42;;;;;;;9.75;8.85;;;;;;;26.79;55.36;64776.09;5113571;28;20201;-76
2023/07/07 10:18:16;;;;;;;7.97;7.28;;;;;;;26.72;53.93;64771.38;5118248;28;20192;-77
2023/07/07 10:20:44;;;;;;;8.23;7.43;;;;;;;26.97;54.29;64798.13;5115753;28;20237;-77
2023/07/07 10:23:14;;;;;;;7.20;6.43;;;;;;;27.00;52.27;64798.13;5112514;28;20188;-78
2023/07/07 10:25:42;;;;;;;8.93;8.02;;;;;;;26.33;56.49;64725.22;5119311;28;20218;-77
2023/07/07 10:28:12;;;;;;;9.98;8.90;;;;;;;26.14;59.58;64703.22;5118821;28;20248;-77
2023/07/07 10:30:41;;;;;;;11.18;9.13;;;;;;;26.43;61.00;64738.31;5117185;28;20215;-78
2023/07/07 10:33:11;;;;;;;10.07;9.07;;;;;;;26.84;56.73;64781.88;5110590;28;20225;-76
2023/07/07 10:35:39;;;;;;;9.00;8.23;;;;;;;26.41;57.42;64738.84;5112340;28;20219;-76
2023/07/07 10:38:08;;;;;;;9.30;8.40;;;;;;;26.60;55.66;64764.53;5114950;28;20262;-76
2023/07/07 10:40:38;;;;;;;9.25;8.35;;;;;;;26.95;55.10;64790.28;5121367;28;20214;-77
2023/07/07 10:43:07;;;;;;;8.77;7.43;;;;;;;27.28;54.40;64830.13;5117790;28;20488;-77
2023/07/07 10:45:34;;;;;;;8.95;8.15;;;;;;;27.24;52.69;64823.31;5117379;28;20222;-75
2023/07/07 10:48:01;;;;;;;9.50;8.57;;;;;;;26.29;56.44;64726.25;5118516;28;20236;-78
2023/07/07 10:50:34;;;;;;;8.77;7.95;;;;;;;26.64;56.13;64758.28;5113656;28;20207;-77
2023/07/07 10:53:17;;;;;;;9.90;8.18;;;;;;;27.01;53.79;64804.94;5115851;28;20248;-78
2023/07/07 10:55:57;;;;;;;8.82;7.85;;;;;;;27.19;51.77;64815.44;5116481;28;20293;-75
2023/07/07 10:58:36;;;;;;;8.77;7.43;;;;;;;27.52;51.55;64854.78;5112622;28;20195;-78
2023/07/07 11:01:18;;;;;;;8.15;7.35;;;;;;;27.70;52.22;64878.94;5117238;28;20225;-76
2023/07/07 11:04:10;;;;;;;8.57;7.78;;;;;;;27.90;50.03;64889.97;5116383;28;20195;-77
2023/07/07 11:06:44;;;;;;;8.65;7.85;;;;;;;27.62;51.54;64862.66;5111781;28;20232;-77
2023/07/07 11:09:26;;;;;;;11.68;8.45;;;;;;;27.01;53.98;64801.78;5115828;28;20201;-77
2023/07/07 11:12:01;;;;;;;8.63;7.85;;;;;;;27.00;55.64;64800.75;5118601;28;20214;-76
2023/07/07 11:14:43;;;;;;;9.20;8.30;;;;;;;26.32;56.50;64727.31;5119103;28;20190;-76
2023/07/07 11:17:25;;;;;;;10.18;8.68;;;;;;;26.06;58.05;64705.81;5114030;28;20214;-75
2023/07/07 11:20:11;;;;;;;9.25;8.40;;;;;;;26.39;58.39;64737.28;5112473;28;20269;-78
2023/07/07 11:22:57;;;;;;;8.77;7.97;;;;;;;26.96;56.32;64794.47;5118846;28;20243;-78
2023/07/07 11:25:32;;;;;;;13.20;8.32;;;;;;;27.13;56.75;64819.59;5122829;28;20202;-79
2023/07/07 11:28:19;;;;;;;8.98;8.07;;;;;;;26.90;56.18;64787.66;5121998;28;20194;-81
2023/07/07 11:30:56;;;;;;;7.85;7.15;;;;;;;26.45;57.50;64743.03;5120685;28;20206;-78